createdAt,value
2019-04-27T00:02:39.998Z,156.90
2019-04-27T00:05:32.411Z,154.47
2019-04-27T00:08:24.030Z,158.07
2019-04-27T00:11:05.172Z,151.17
2019-04-27T00:13:30.140Z,150.67
2019-04-27T00:16:17.317Z,169.73
2019-04-27T00:19:10.776Z,154.13
2019-04-27T00:24:36.135Z,155.13
2019-04-27T00:27:03.825Z,150.17
2019-04-27T00:29:33.071Z,168.57
2019-04-27T00:32:00.983Z,146.03
2019-04-27T00:34:28.557Z,161.20
2019-04-27T00:37:17.053Z,156.40
2019-04-27T00:39:53.275Z,162.07
2019-04-27T00:42:21.295Z,152.73
2019-04-27T00:44:48.889Z,149.10
2019-04-27T00:47:16.436Z,163.20
2019-04-27T00:49:44.374Z,167.20
2019-04-27T00:52:13.780Z,148.63
2019-04-27T00:54:41.444Z,163.73
2019-04-27T00:57:30.886Z,151.00
2019-04-27T01:00:18.016Z,156.30
2019-04-27T01:03:08.995Z,151.90
2019-04-27T01:05:36.536Z,155.37
2019-04-27T01:08:04.276Z,155.87
2019-04-27T01:10:33.359Z,152.37
2019-04-27T01:13:01.061Z,146.57
2019-04-27T01:15:29.610Z,163.83
2019-04-27T01:18:09.296Z,157.23
2019-04-27T01:20:26.374Z,145.87
2019-04-27T01:22:53.748Z,152.93
2019-04-27T01:25:23.258Z,152.87
2019-04-27T01:28:10.727Z,150.77
2019-04-27T01:30:52.987Z,154.73
2019-04-27T01:33:20.584Z,148.60
2019-04-27T01:35:49.156Z,150.70
2019-04-27T01:38:16.790Z,151.00
2019-04-27T01:40:44.242Z,166.93
2019-04-27T01:43:11.734Z,161.23
2019-04-27T01:45:39.289Z,158.07
2019-04-27T01:48:06.712Z,152.57
2019-04-27T01:50:34.517Z,163.10
2019-04-27T01:53:03.033Z,157.33
2019-04-27T01:55:30.496Z,168.50
2019-04-27T01:57:59.593Z,156.97
2019-04-27T02:00:53.880Z,172.03
2019-04-27T02:03:28.636Z,168.73
2019-04-27T02:05:57.149Z,152.17
2019-04-27T02:08:24.808Z,160.20
2019-04-27T02:10:53.553Z,155.77
2019-04-27T02:13:21.292Z,159.60
2019-04-27T02:15:48.953Z,145.20
2019-04-27T02:18:16.578Z,153.83
2019-04-27T02:20:44.664Z,157.10
2019-04-27T02:23:12.049Z,146.73
2019-04-27T02:25:40.391Z,143.33
2019-04-27T02:28:19.465Z,144.47
2019-04-27T02:31:16.468Z,140.47
2019-04-27T02:33:47.091Z,147.00
2019-04-27T02:36:15.390Z,145.47
2019-04-27T02:38:43.891Z,156.87
2019-04-27T02:41:11.394Z,151.90
2019-04-27T02:43:49.565Z,139.60
2019-04-27T02:46:16.839Z,143.57
2019-04-27T02:48:55.305Z,148.23
2019-04-27T02:51:17.344Z,157.77
2019-04-27T02:53:55.317Z,145.60
2019-04-27T02:56:23.080Z,147.77
2019-04-27T02:58:50.648Z,151.63
2019-04-27T03:01:20.092Z,150.57
2019-04-27T03:03:50.314Z,152.33
2019-04-27T03:06:19.994Z,151.00
2019-04-27T03:08:52.746Z,144.77
2019-04-27T03:11:17.112Z,150.17
2019-04-27T03:13:59.845Z,152.10
2019-04-27T03:16:50.638Z,147.80
2019-04-27T03:19:32.898Z,156.13
2019-04-27T03:22:20.159Z,143.40
2019-04-27T03:25:19.918Z,157.03
2019-04-27T03:27:50.253Z,144.47
2019-04-27T03:30:22.528Z,155.00
2019-04-27T03:32:55.076Z,146.73
2019-04-27T03:35:17.116Z,157.73
2019-04-27T03:37:45.338Z,150.83
2019-04-27T03:40:13.071Z,156.30
2019-04-27T03:42:44.489Z,146.27
2019-04-27T03:45:12.185Z,150.77
2019-04-27T03:47:40.616Z,165.00
2019-04-27T03:50:10.742Z,168.13
2019-04-27T03:52:47.115Z,148.30
2019-04-27T03:55:19.829Z,160.13
2019-04-27T03:58:11.776Z,152.90
2019-04-27T04:00:36.410Z,155.83
2019-04-27T04:03:04.015Z,148.17
2019-04-27T04:05:31.591Z,158.03
2019-04-27T04:08:00.422Z,160.17
2019-04-27T04:10:29.992Z,151.73
2019-04-27T04:13:10.776Z,150.07
2019-04-27T04:16:00.443Z,159.23
2019-04-27T04:18:31.784Z,157.07
2019-04-27T04:21:00.403Z,153.43
2019-04-27T04:23:30.004Z,159.97
2019-04-27T04:25:59.737Z,157.50
2019-04-27T04:28:29.378Z,158.73
2019-04-27T04:31:00.278Z,167.97
2019-04-27T04:33:26.866Z,168.63
2019-04-27T04:35:54.196Z,145.93
2019-04-27T04:38:21.672Z,159.87
2019-04-27T04:40:55.969Z,163.73
2019-04-27T04:43:32.029Z,158.83
2019-04-27T04:46:19.105Z,160.37
2019-04-27T04:48:47.206Z,163.23
2019-04-27T04:51:14.599Z,164.70
2019-04-27T04:53:42.091Z,167.33
2019-04-27T04:56:10.656Z,165.03
2019-04-27T04:58:39.735Z,159.90
2019-04-27T05:01:09.902Z,154.17
2019-04-27T05:03:38.888Z,157.90
2019-04-27T05:06:06.459Z,157.87
2019-04-27T05:08:33.972Z,163.47
2019-04-27T05:11:01.346Z,157.07
2019-04-27T05:13:29.311Z,159.37
2019-04-27T05:15:58.756Z,169.53
2019-04-27T05:18:26.354Z,155.53
2019-04-27T05:20:59.496Z,158.40
2019-04-27T05:23:28.662Z,171.90
2019-04-27T05:25:56.195Z,162.10
2019-04-27T05:28:23.882Z,167.03
2019-04-27T05:30:51.444Z,165.20
2019-04-27T05:33:19.020Z,163.87
2019-04-27T05:35:49.238Z,158.77
2019-04-27T05:38:19.354Z,164.93
2019-04-27T05:40:47.013Z,168.20
2019-04-27T05:43:16.719Z,174.70
2019-04-27T05:46:51.153Z,170.80
2019-04-27T05:49:24.226Z,175.70
2019-04-27T05:51:51.893Z,156.77
2019-04-27T05:54:19.352Z,178.90
2019-04-27T05:56:46.748Z,161.63
2019-04-27T05:59:14.837Z,177.63
2019-04-27T06:01:42.997Z,160.90
2019-04-27T06:04:10.554Z,176.40
2019-04-27T06:06:39.691Z,160.90
2019-04-27T06:09:09.356Z,189.40
2019-04-27T06:11:36.955Z,160.20
2019-04-27T06:14:04.603Z,172.97
2019-04-27T06:16:33.831Z,155.47
2019-04-27T06:19:02.252Z,166.63
2019-04-27T06:21:30.799Z,166.00
2019-04-27T06:23:58.894Z,167.50
2019-04-27T06:26:26.789Z,167.33
2019-04-27T06:28:54.596Z,161.47
2019-04-27T06:31:22.118Z,155.33
2019-04-27T06:33:50.578Z,160.80
2019-04-27T06:36:19.874Z,166.37
2019-04-27T06:38:48.568Z,160.53
2019-04-27T06:41:16.165Z,158.37
2019-04-27T06:43:43.638Z,158.17
2019-04-27T06:46:12.584Z,162.33
2019-04-27T06:48:40.420Z,151.63
2019-04-27T06:51:09.693Z,161.00
2019-04-27T06:53:37.235Z,162.03
2019-04-27T06:56:05.000Z,158.43
2019-04-27T06:58:33.808Z,163.10
2019-04-27T07:01:01.420Z,158.13
2019-04-27T07:03:30.976Z,163.90
2019-04-27T07:05:59.013Z,157.23
2019-04-27T07:08:30.534Z,162.93
2019-04-27T07:10:58.881Z,164.10
2019-04-27T07:13:35.571Z,164.83
2019-04-27T07:15:59.708Z,147.60
2019-04-27T07:18:30.056Z,151.97
2019-04-27T07:20:59.605Z,153.50
2019-04-27T07:23:31.383Z,150.10
2019-04-27T07:25:59.910Z,156.97
2019-04-27T07:28:28.660Z,141.90
2019-04-27T07:30:58.672Z,146.23
2019-04-27T07:33:27.141Z,153.77
2019-04-27T07:35:54.564Z,145.80
2019-04-27T07:38:25.619Z,142.37
2019-04-27T07:40:53.517Z,148.40
2019-04-27T07:43:39.285Z,150.23
2019-04-27T07:46:06.819Z,152.70
2019-04-27T07:48:34.335Z,141.13
2019-04-27T07:51:01.695Z,149.63
2019-04-27T07:53:29.234Z,151.70
2019-04-27T07:55:56.666Z,141.47
2019-04-27T07:58:24.417Z,158.83
2019-04-27T08:00:51.847Z,140.63
2019-04-27T08:03:19.607Z,146.77
2019-04-27T08:05:48.978Z,151.53
2019-04-27T08:08:18.872Z,147.27
2019-04-27T08:10:50.055Z,147.43
2019-04-27T08:13:20.090Z,148.57
2019-04-27T08:15:49.623Z,141.53
2019-04-27T08:18:18.810Z,153.90
2019-04-27T08:20:49.023Z,154.57
2019-04-27T08:23:16.453Z,141.70
2019-04-27T08:25:44.102Z,143.27
2019-04-27T08:28:38.553Z,150.37
2019-04-27T08:31:11.492Z,148.47
2019-04-27T08:33:39.097Z,150.87
2019-04-27T08:36:06.676Z,149.33
2019-04-27T08:38:34.164Z,152.67
2019-04-27T08:41:01.743Z,156.40
2019-04-27T08:43:30.405Z,152.83
2019-04-27T08:45:58.735Z,149.37
2019-04-27T08:48:34.662Z,148.10
2019-04-27T08:50:56.437Z,158.90
2019-04-27T08:53:25.115Z,153.67
2019-04-27T08:55:52.900Z,147.77
2019-04-27T08:58:23.075Z,158.57
2019-04-27T09:00:50.631Z,155.67
2019-04-27T09:03:19.373Z,151.90
2019-04-27T09:05:46.946Z,147.53
2019-04-27T09:08:29.654Z,155.87
2019-04-27T09:11:29.038Z,157.33
2019-04-27T09:14:05.700Z,162.27
2019-04-27T09:16:59.556Z,145.77
2019-04-27T09:19:36.014Z,162.20
2019-04-27T09:22:13.547Z,150.80
2019-04-27T09:24:34.194Z,168.83
2019-04-27T09:27:01.799Z,146.00
2019-04-27T09:29:29.818Z,160.73
2019-04-27T09:31:59.593Z,141.57
2019-04-27T09:34:28.131Z,154.70
2019-04-27T09:36:56.645Z,153.33
2019-04-27T09:39:26.500Z,168.23
2019-04-27T09:41:54.302Z,142.80
2019-04-27T09:44:23.563Z,161.47
2019-04-27T09:46:51.103Z,146.40
2019-04-27T09:49:18.572Z,165.43
2019-04-27T09:51:48.205Z,150.20
2019-04-27T09:54:16.093Z,170.13
2019-04-27T09:56:43.655Z,150.40
2019-04-27T09:59:11.507Z,168.17
2019-04-27T10:01:39.010Z,163.50
2019-04-27T10:04:07.183Z,167.03
2019-04-27T10:06:37.775Z,149.67
2019-04-27T10:09:06.939Z,162.83
2019-04-27T10:11:37.075Z,155.17
2019-04-27T10:14:05.916Z,164.73
2019-04-27T10:16:33.842Z,151.43
2019-04-27T10:19:01.569Z,164.33
2019-04-27T10:21:29.423Z,152.17
2019-04-27T10:23:57.025Z,154.37
2019-04-27T10:26:25.883Z,148.47
2019-04-27T10:28:54.001Z,164.73
2019-04-27T10:31:21.613Z,152.80
2019-04-27T10:33:50.534Z,154.27
2019-04-27T10:36:38.440Z,164.43
2019-04-27T10:39:13.336Z,157.40
2019-04-27T10:41:42.330Z,162.60
2019-04-27T10:44:10.340Z,171.03
2019-04-27T10:46:39.990Z,146.00
2019-04-27T10:49:07.797Z,163.13
2019-04-27T10:51:36.405Z,159.27
2019-04-27T10:54:05.922Z,156.17
2019-04-27T10:56:35.959Z,152.37
2019-04-27T10:59:07.209Z,161.97
2019-04-27T11:01:35.922Z,158.57
2019-04-27T11:04:19.845Z,174.57
2019-04-27T11:06:50.716Z,170.20
2019-04-27T11:09:18.790Z,163.30
2019-04-27T11:11:46.494Z,157.00
2019-04-27T11:14:15.930Z,164.33
2019-04-27T11:16:45.778Z,174.53
2019-04-27T11:19:13.637Z,159.53
2019-04-27T11:21:41.972Z,153.73
2019-04-27T11:24:09.532Z,174.37
2019-04-27T11:26:37.086Z,159.80
2019-04-27T11:29:05.331Z,178.50
2019-04-27T11:31:32.916Z,167.97
2019-04-27T11:34:00.824Z,170.30
2019-04-27T11:36:50.837Z,157.67
2019-04-27T11:39:21.139Z,173.07
2019-04-27T11:41:47.938Z,157.70
2019-04-27T11:44:17.026Z,166.53
2019-04-27T11:46:45.534Z,166.27
2019-04-27T11:49:15.596Z,180.27
2019-04-27T11:51:43.466Z,151.60
2019-04-27T11:54:10.819Z,173.30
2019-04-27T11:56:38.383Z,144.40
2019-04-27T11:59:07.043Z,139.53
2019-04-27T12:01:35.808Z,146.27
2019-04-27T12:04:03.788Z,139.90
2019-04-27T12:06:31.509Z,137.73
2019-04-27T12:08:59.331Z,145.10
2019-04-27T12:11:27.010Z,118.67
2019-04-27T12:13:56.163Z,140.07
2019-04-27T12:16:23.907Z,131.47
2019-04-27T12:18:52.080Z,146.53
2019-04-27T12:21:21.079Z,139.60
2019-04-27T12:23:48.886Z,138.83
2019-04-27T12:26:31.253Z,151.47
2019-04-27T12:29:00.553Z,158.80
2019-04-27T12:31:31.621Z,165.57
2019-04-27T12:33:59.145Z,166.77
2019-04-27T12:36:27.243Z,154.90
2019-04-27T12:38:56.554Z,162.93
2019-04-27T12:41:24.277Z,166.17
2019-04-27T12:43:51.902Z,163.20
2019-04-27T12:46:20.293Z,152.17
2019-04-27T12:48:49.035Z,160.67
2019-04-27T12:51:16.596Z,159.97
2019-04-27T12:53:55.990Z,159.67
2019-04-27T12:56:32.978Z,151.57
2019-04-27T12:59:22.682Z,168.87
2019-04-27T13:01:50.883Z,156.30
2019-04-27T13:04:18.556Z,168.10
2019-04-27T13:06:47.018Z,153.60
2019-04-27T13:09:15.436Z,178.07
2019-04-27T13:11:45.914Z,157.50
2019-04-27T13:14:14.092Z,160.50
2019-04-27T13:16:41.652Z,164.97
2019-04-27T13:19:10.120Z,173.13
2019-04-27T13:21:37.515Z,167.23
2019-04-27T13:24:06.991Z,160.77
2019-04-27T13:26:36.172Z,171.87
2019-04-27T13:29:04.255Z,172.93
2019-04-27T13:31:31.783Z,166.50
2019-04-27T13:34:02.506Z,165.27
2019-04-27T13:36:29.316Z,163.30
2019-04-27T13:38:57.039Z,161.70
2019-04-27T13:41:30.297Z,154.13
2019-04-27T13:43:57.182Z,162.37
2019-04-27T13:46:43.655Z,165.93
2019-04-27T13:49:37.424Z,181.57
2019-04-27T13:52:09.149Z,152.00
2019-04-27T13:54:36.741Z,173.03
2019-04-27T13:57:04.467Z,155.77
2019-04-27T13:59:32.177Z,179.23
2019-04-27T14:01:59.756Z,165.33
2019-04-27T14:04:27.389Z,169.73
2019-04-27T14:06:55.663Z,161.13
2019-04-27T14:09:23.396Z,176.10
2019-04-27T14:11:55.429Z,155.33
2019-04-27T14:14:23.053Z,166.97
2019-04-27T14:16:50.473Z,161.07
2019-04-27T14:19:19.339Z,171.53
2019-04-27T14:21:48.729Z,156.57
2019-04-27T14:24:27.446Z,163.73
2019-04-27T14:26:48.574Z,164.73
2019-04-27T14:29:16.242Z,163.93
2019-04-27T14:31:43.840Z,153.13
2019-04-27T14:34:11.832Z,176.50
2019-04-27T14:36:42.601Z,163.60
2019-04-27T14:39:11.925Z,163.77
2019-04-27T14:41:41.981Z,151.57
2019-04-27T14:44:10.677Z,173.07
2019-04-27T14:46:39.222Z,164.23
2019-04-27T14:49:07.651Z,172.73
2019-04-27T14:51:36.067Z,160.87
2019-04-27T14:54:04.479Z,173.57
2019-04-27T14:56:32.214Z,157.67
2019-04-27T14:58:59.693Z,162.87
2019-04-27T15:01:29.001Z,172.83
2019-04-27T15:03:56.750Z,164.33
2019-04-27T15:06:25.510Z,158.17
2019-04-27T15:08:53.179Z,154.90
2019-04-27T15:11:20.763Z,157.90
2019-04-27T15:13:50.532Z,152.27
2019-04-27T15:16:18.028Z,165.63
2019-04-27T15:18:51.198Z,158.80
2019-04-27T15:21:20.230Z,169.47
2019-04-27T15:23:48.395Z,152.90
2019-04-27T15:26:20.176Z,160.27
2019-04-27T15:28:49.424Z,156.40
2019-04-27T15:31:30.283Z,159.53
2019-04-27T15:34:16.208Z,167.73
2019-04-27T15:37:07.965Z,165.10
2019-04-27T15:39:57.754Z,166.50
2019-04-27T15:42:30.679Z,154.13
2019-04-27T15:44:58.549Z,157.73
2019-04-27T15:47:28.428Z,153.07
2019-04-27T15:49:55.914Z,173.17
2019-04-27T15:52:25.511Z,160.93
2019-04-27T15:54:53.012Z,165.93
2019-04-27T15:57:20.910Z,163.20
2019-04-27T15:59:48.470Z,173.20
2019-04-27T16:02:16.056Z,164.93
2019-04-27T16:04:44.474Z,172.83
2019-04-27T16:07:12.838Z,153.63
2019-04-27T16:09:40.375Z,169.03
2019-04-27T16:12:12.531Z,149.40
2019-04-27T16:14:40.880Z,172.27
2019-04-27T16:17:08.103Z,155.97
2019-04-27T16:19:42.385Z,166.60
2019-04-27T16:22:07.998Z,171.53
2019-04-27T16:24:36.298Z,160.57
2019-04-27T16:27:04.174Z,148.83
2019-04-27T16:29:36.084Z,166.93
2019-04-27T16:32:07.820Z,163.73
2019-04-27T16:34:41.261Z,171.77
2019-04-27T16:37:14.068Z,157.10
2019-04-27T16:39:45.502Z,166.63
2019-04-27T16:42:14.188Z,172.03
2019-04-27T16:44:44.411Z,165.60
2019-04-27T16:47:21.954Z,159.23
2019-04-27T16:49:48.394Z,181.37
2019-04-27T16:52:17.549Z,163.50
2019-04-27T16:54:53.538Z,175.70
2019-04-27T16:57:15.635Z,157.03
2019-04-27T16:59:50.503Z,172.63
2019-04-27T17:02:17.372Z,166.47
2019-04-27T17:04:51.978Z,171.23
2019-04-27T17:07:14.706Z,162.60
2019-04-27T17:09:46.287Z,185.33
2019-04-27T17:12:12.635Z,155.97
2019-04-27T17:15:13.683Z,176.50
2019-04-27T17:17:51.254Z,165.03
2019-04-27T17:20:21.339Z,164.03
2019-04-27T17:22:53.241Z,166.57
2019-04-27T17:25:23.313Z,164.90
2019-04-27T17:27:58.790Z,174.23
2019-04-27T17:30:30.973Z,173.77
2019-04-27T17:33:11.921Z,170.33
2019-04-27T17:35:45.391Z,162.27
2019-04-27T17:39:25.777Z,175.43
2019-04-27T17:41:53.438Z,166.87
2019-04-27T17:44:24.420Z,174.43
2019-04-27T17:46:52.138Z,176.97
2019-04-27T17:49:19.905Z,186.77
2019-04-27T17:51:48.426Z,171.00
2019-04-27T17:54:18.075Z,188.37
2019-04-27T17:56:50.990Z,177.40
2019-04-27T17:59:20.746Z,204.17
2019-04-27T18:01:49.608Z,170.77
2019-04-27T18:04:18.617Z,186.43
2019-04-27T18:06:48.354Z,178.23
2019-04-27T18:09:18.749Z,193.40
2019-04-27T18:11:48.617Z,180.67
2019-04-27T18:14:16.382Z,186.53
2019-04-27T18:16:44.725Z,182.00
2019-04-27T18:19:21.176Z,188.97
2019-04-27T18:22:05.318Z,163.97
2019-04-27T18:25:25.786Z,168.47
2019-04-27T18:28:00.547Z,164.00
2019-04-27T18:30:46.457Z,166.83
2019-04-27T18:33:14.837Z,164.67
2019-04-27T18:35:42.493Z,185.23
2019-04-27T18:38:09.998Z,167.40
2019-04-27T18:40:38.222Z,158.27
2019-04-27T18:43:12.311Z,154.50
2019-04-27T18:45:44.414Z,155.10
2019-04-27T18:48:13.903Z,168.23
2019-04-27T18:50:52.208Z,168.83
2019-04-27T18:53:24.380Z,158.53
2019-04-27T18:55:57.623Z,164.87
2019-04-27T18:58:21.681Z,164.73
2019-04-27T19:00:50.142Z,166.70
2019-04-27T19:03:18.828Z,172.00
2019-04-27T19:05:48.129Z,174.80
2019-04-27T19:08:19.970Z,166.13
2019-04-27T19:10:47.645Z,163.50
2019-04-27T19:13:15.107Z,162.13
2019-04-27T19:15:43.406Z,162.13
2019-04-27T19:18:14.007Z,152.73
2019-04-27T19:20:42.506Z,157.53
2019-04-27T19:23:14.260Z,148.93
2019-04-27T19:25:58.539Z,164.30
2019-04-27T19:28:39.186Z,175.37
2019-04-27T19:31:13.695Z,166.40
2019-04-27T19:33:41.293Z,161.77
2019-04-27T19:36:08.861Z,159.07
2019-04-27T19:38:36.609Z,157.67
2019-04-27T19:41:05.328Z,158.33
2019-04-27T19:43:33.736Z,151.10
2019-04-27T19:46:03.259Z,167.47
2019-04-27T19:48:32.002Z,156.07
2019-04-27T19:51:00.167Z,155.90
2019-04-27T19:53:27.951Z,153.27
2019-04-27T19:56:02.493Z,151.37
2019-04-27T19:58:34.456Z,166.73
2019-04-27T20:01:11.759Z,158.20
2019-04-27T20:03:53.847Z,154.97
2019-04-27T20:06:22.342Z,159.13
2019-04-27T20:08:52.285Z,164.03
2019-04-27T20:11:19.837Z,172.97
2019-04-27T20:13:47.288Z,166.83
2019-04-27T20:16:14.627Z,171.23
2019-04-27T20:18:43.357Z,164.90
2019-04-27T20:21:12.312Z,175.77
2019-04-27T20:23:40.839Z,181.40
2019-04-27T20:26:08.819Z,170.53
2019-04-27T20:28:38.540Z,172.17
2019-04-27T20:31:09.707Z,172.80
2019-04-27T20:33:38.005Z,167.53
2019-04-27T20:36:05.548Z,181.33
2019-04-27T20:38:34.059Z,182.30
2019-04-27T20:41:01.462Z,175.53
2019-04-27T20:43:28.937Z,181.00
2019-04-27T20:45:56.602Z,171.80
2019-04-27T20:48:24.182Z,192.40
2019-04-27T20:50:51.521Z,175.17
2019-04-27T20:53:24.119Z,181.77
2019-04-27T20:55:51.800Z,197.73
2019-04-27T20:58:21.113Z,187.70
2019-04-27T21:00:48.977Z,173.67
2019-04-27T21:03:41.091Z,182.93
2019-04-27T21:06:17.230Z,190.70
2019-04-27T21:08:45.000Z,184.07
2019-04-27T21:11:12.385Z,185.53
2019-04-27T21:13:40.030Z,183.33
2019-04-27T21:16:07.527Z,181.50
2019-04-27T21:18:37.248Z,191.07
2019-04-27T21:21:04.677Z,186.47
2019-04-27T21:23:32.066Z,182.67
2019-04-27T21:26:02.077Z,178.57
2019-04-27T21:28:30.998Z,181.47
2019-04-27T21:30:58.573Z,187.27
2019-04-27T21:33:26.054Z,189.40
2019-04-27T21:35:53.643Z,179.97
2019-04-27T21:38:21.372Z,190.17
2019-04-27T21:40:49.371Z,188.17
2019-04-27T21:43:21.637Z,181.87
2019-04-27T21:45:51.338Z,185.87
2019-04-27T21:48:18.797Z,195.87
2019-04-27T21:50:46.235Z,189.00
2019-04-27T21:53:32.193Z,186.63
2019-04-27T21:56:04.602Z,181.73
2019-04-27T21:58:33.342Z,185.97
2019-04-27T22:01:23.777Z,193.87
2019-04-27T22:03:52.749Z,189.37
2019-04-27T22:06:20.359Z,187.53
2019-04-27T22:08:47.854Z,190.90
2019-04-27T22:11:15.513Z,195.17
2019-04-27T22:13:43.420Z,193.77
2019-04-27T22:16:12.917Z,197.07
2019-04-27T22:18:41.707Z,187.10
2019-04-27T22:21:11.345Z,190.73
2019-04-27T22:23:53.081Z,194.03
2019-04-27T22:26:21.360Z,185.63
2019-04-27T22:28:52.085Z,191.20
2019-04-27T22:31:21.243Z,200.63
2019-04-27T22:33:52.056Z,195.70
2019-04-27T22:36:18.661Z,191.50
2019-04-27T22:38:46.017Z,193.73
2019-04-27T22:41:23.224Z,199.13
2019-04-27T22:44:02.799Z,199.43
2019-04-27T22:46:30.970Z,195.93
2019-04-27T22:48:58.463Z,209.93
2019-04-27T22:51:26.368Z,207.00
2019-04-27T22:53:53.709Z,194.90
2019-04-27T22:56:22.180Z,209.50
2019-04-27T22:59:08.064Z,196.07
2019-04-27T23:01:51.942Z,195.10
2019-04-27T23:04:22.875Z,212.83
2019-04-27T23:06:50.530Z,181.43
2019-04-27T23:09:18.090Z,209.27
2019-04-27T23:11:45.578Z,200.63
2019-04-27T23:14:13.043Z,212.20
2019-04-27T23:16:42.674Z,185.17
2019-04-27T23:19:10.874Z,213.73
2019-04-27T23:21:38.558Z,188.60
2019-04-27T23:24:06.104Z,210.93
2019-04-27T23:26:33.697Z,191.23
2019-04-27T23:29:12.942Z,195.93
2019-04-27T23:31:37.257Z,199.70
2019-04-27T23:34:04.874Z,205.10
2019-04-27T23:36:32.268Z,202.37
2019-04-27T23:39:01.780Z,198.40
2019-04-27T23:41:31.271Z,184.30
2019-04-27T23:43:58.687Z,226.37
2019-04-27T23:46:26.184Z,185.47
2019-04-27T23:48:53.932Z,197.33
2019-04-27T23:51:29.940Z,190.20
2019-04-27T23:53:59.141Z,202.10
2019-04-27T23:56:26.597Z,198.07
2019-04-27T23:58:54.222Z,192.90
